Flight Track Log - Related Links

Times and Time Zones

All times are in EST time to prevent confusion due to time zone crossing. See the EJA749 flight status page for this flight to view local times or setup timezone preferences in your user account.

Time Position Orientation Groundspeed Altitude Reporting Facility
EST Latitude Longitude Course Direction KTS MPH feet Rate Location/Type
Thu 07:34:20 AM 41.7667 -87.7667 251° West 174 200 2,000  Level Chicago TRACON
Thu 07:35:14 AM 41.7500 -87.8333 251° West 214 246 3,900 2,266 Climbing Chicago TRACON
Thu 07:36:43 AM 41.7589 -87.9578 276° West 223 257 7,400 2,400 Climbing Chicago Center
Thu 07:37:44 AM 41.7633 -88.0439 274° West 231 266 9,900 2,439 Climbing Chicago Center
Thu 07:38:46 AM 41.7664 -88.1492 272° West 283 326 12,400 2,439 Climbing Chicago Center
Thu 07:39:47 AM 41.7719 -88.2686 274° West 320 368 14,900 2,390 Climbing Chicago Center
Thu 07:40:49 AM 41.7772 -88.3875 273° West 322 371 17,300 2,341 Climbing Chicago Center
Thu 07:41:50 AM 41.7833 -88.5175 274° West 346 398 19,700 2,634 Climbing Chicago Center
Thu 07:42:52 AM 41.7906 -88.6808 273° West 367 422 22,700 2,098 Climbing Chicago Center
Thu 07:43:53 AM 41.7969 -88.8267 273° West 388 447 24,000 634 Climbing Chicago Center
Thu 07:44:55 AM 41.8397 -88.9803 291° West 443 510 24,000  Level Chicago Center
Thu 07:45:57 AM 41.8856 -89.1300 292° West 439 505 24,000  Level Chicago Center
Thu 07:46:58 AM 41.9350 -89.2769 294° West 437 503 24,000  Level Chicago Center
Thu 07:48:00 AM 41.9831 -89.4256 294° West 435 501 24,000  Level Chicago Center
Thu 07:49:02 AM 42.0311 -89.5742 294° West 435 501 24,000  Level Chicago Center
Thu 07:50:03 AM 42.0914 -89.7556 294° West 445 512 24,000  Level Chicago Center
Thu 07:51:05 AM 42.1428 -89.9078 295° West 448 516 24,000  Level Chicago Center
Thu 07:52:07 AM 42.1869 -90.0381 295° West 445 512 24,000  Level Chicago Center
Thu 07:53:08 AM 42.2947 -90.1858 315° West 459 528 24,000  Level Chicago Center
Thu 07:54:10 AM 42.3811 -90.3050 314° West 448 516 24,000  Level Chicago Center
Thu 07:55:12 AM 42.4683 -90.4264 314° West 452 520 24,000  Level Chicago Center
Thu 07:56:14 AM 42.5558 -90.5469 315° West 452 520 24,000  Level Chicago Center
Thu 07:57:15 AM 42.6428 -90.6675 314° West 450 518 24,000  Level Chicago Center
Thu 07:58:17 AM 42.7467 -90.8142 314° West 451 519 24,000  Level Chicago Center
Thu 07:59:19 AM 42.8339 -90.9358 314° West 453 521 24,000  Level Chicago Center
Thu 08:00:20 AM 42.9206 -91.0597 314° West 457 526 24,000  Level Chicago Center
Thu 08:01:22 AM 43.0072 -91.1833 314° West 459 528 24,000  Level Chicago Center
Thu 08:02:24 AM 43.0933 -91.3061 314° West 456 525 24,000 -545 Level Chicago Center
Thu 08:03:01 AM 43.1608 -91.4022 314° West 453 521 23,100 -1,636 Descending Minneapolis Center
Thu 08:04:03 AM 43.2392 -91.5144 314° West 425 489 21,300 -1,902 Descending Minneapolis Center
Thu 08:05:04 AM 43.3147 -91.6275 313° West 414 476 19,200 -2,213 Descending Minneapolis Center
Thu 08:06:05 AM 43.3844 -91.7286 314° West 384 442 16,800 -2,311 Descending Minneapolis Center
Thu 08:07:06 AM 43.4508 -91.8267 313° West 364 419 14,500 -1,721 Descending Minneapolis Center
Thu 08:08:07 AM 43.5128 -91.9172 313° West 340 391 13,300 -1,317 Descending Minneapolis Center
Thu 08:09:09 AM 43.5731 -92.0047 314° West 323 372 11,800 -1,610 Descending Minneapolis Center
Thu 08:10:10 AM 43.6419 -92.1056 313° West 306 352 10,000 -1,770 Descending Minneapolis Center
Thu 08:11:11 AM 43.6919 -92.1800 313° West 272 313 8,200 -1,951 Descending Minneapolis Center
Thu 08:12:13 AM 43.7444 -92.2572 313° West 258 297 6,000 -2,000 Descending Minneapolis Center
Thu 08:13:14 AM 43.7978 -92.3183 320° Northwest 257 296 4,100 -1,475 Descending Minneapolis Center
Thu 08:14:15 AM 43.8653 -92.3483 342° North 236 272 3,000 -537 Descending Minneapolis Center
Thu 08:15:17 AM 43.9122 -92.3744 338° Northwest 183 211 3,000 -244 Level Minneapolis Center
Thu 08:16:18 AM 43.9472 -92.4131 322° Northwest 148 170 2,500 -488 Descending Minneapolis Center
Thu 08:17:20 AM 43.9436 -92.4664 265° West 145 167 2,000 -537 Descending Minneapolis Center
Thu 08:18:21 AM 43.9167 -92.4928 215° Southwest 123 142 1,400 -341 Descending Minneapolis Center
Thu 08:19:23 AM 43.8994 -92.5033 204° Southwest 71 82 1,300 -97 Descending Minneapolis Center

Login

Don't have an account? Register now (free) for customized features, flight alerts, and more!